sensor_id;sensor_type;location;lat;lon;timestamp;P1;durP1;ratioP1;P2;durP2;ratioP2
71947;SDS011;63257;55.082;38.772;2023-07-29T00:01:13;8.18;;;4.30;;
71947;SDS011;63257;55.082;38.772;2023-07-29T00:03:38;11.00;;;4.90;;
71947;SDS011;63257;55.082;38.772;2023-07-29T00:06:04;13.60;;;5.25;;
71947;SDS011;63257;55.082;38.772;2023-07-29T00:08:30;9.93;;;5.33;;
71947;SDS011;63257;55.082;38.772;2023-07-29T00:10:56;11.73;;;5.78;;
71947;SDS011;63257;55.082;38.772;2023-07-29T00:13:22;10.33;;;6.17;;
71947;SDS011;63257;55.082;38.772;2023-07-29T00:15:47;17.73;;;8.57;;
71947;SDS011;63257;55.082;38.772;2023-07-29T00:18:13;20.33;;;10.13;;
71947;SDS011;63257;55.082;38.772;2023-07-29T00:20:39;19.50;;;9.35;;
71947;SDS011;63257;55.082;38.772;2023-07-29T00:23:05;24.00;;;11.80;;
71947;SDS011;63257;55.082;38.772;2023-07-29T00:25:30;20.13;;;11.00;;
71947;SDS011;63257;55.082;38.772;2023-07-29T00:27:56;22.73;;;11.10;;
71947;SDS011;63257;55.082;38.772;2023-07-29T00:30:22;19.88;;;9.90;;
71947;SDS011;63257;55.082;38.772;2023-07-29T00:32:50;21.15;;;11.75;;
71947;SDS011;63257;55.082;38.772;2023-07-29T00:35:16;25.93;;;12.60;;
71947;SDS011;63257;55.082;38.772;2023-07-29T00:37:42;17.63;;;9.63;;
71947;SDS011;63257;55.082;38.772;2023-07-29T00:40:10;23.43;;;12.77;;
71947;SDS011;63257;55.082;38.772;2023-07-29T00:42:41;23.67;;;11.65;;
71947;SDS011;63257;55.082;38.772;2023-07-29T00:45:09;27.65;;;14.52;;
71947;SDS011;63257;55.082;38.772;2023-07-29T00:47:35;25.38;;;11.27;;
71947;SDS011;63257;55.082;38.772;2023-07-29T00:50:01;28.10;;;14.67;;
71947;SDS011;63257;55.082;38.772;2023-07-29T00:52:29;23.38;;;12.45;;
71947;SDS011;63257;55.082;38.772;2023-07-29T00:54:54;29.65;;;14.65;;
71947;SDS011;63257;55.082;38.772;2023-07-29T00:57:20;28.90;;;14.07;;
71947;SDS011;63257;55.082;38.772;2023-07-29T00:59:47;25.85;;;13.23;;
71947;SDS011;63257;55.082;38.772;2023-07-29T01:02:13;28.35;;;14.15;;
71947;SDS011;63257;55.082;38.772;2023-07-29T01:04:38;28.13;;;13.03;;
71947;SDS011;63257;55.082;38.772;2023-07-29T01:07:25;31.08;;;15.90;;
71947;SDS011;63257;55.082;38.772;2023-07-29T01:11:01;31.42;;;14.48;;
71947;SDS011;63257;55.082;38.772;2023-07-29T01:15:53;31.58;;;16.85;;
71947;SDS011;63257;55.082;38.772;2023-07-29T01:18:24;30.48;;;15.68;;
71947;SDS011;63257;55.082;38.772;2023-07-29T01:20:54;31.73;;;16.90;;
71947;SDS011;63257;55.082;38.772;2023-07-29T01:23:26;31.75;;;16.45;;
71947;SDS011;63257;55.082;38.772;2023-07-29T01:25:55;33.87;;;17.00;;
71947;SDS011;63257;55.082;38.772;2023-07-29T01:28:20;32.70;;;17.30;;
71947;SDS011;63257;55.082;38.772;2023-07-29T01:30:47;35.08;;;17.05;;
71947;SDS011;63257;55.082;38.772;2023-07-29T01:35:52;35.17;;;15.93;;
71947;SDS011;63257;55.082;38.772;2023-07-29T01:38:41;39.63;;;17.15;;
71947;SDS011;63257;55.082;38.772;2023-07-29T01:41:09;39.03;;;18.00;;
71947;SDS011;63257;55.082;38.772;2023-07-29T01:43:36;46.58;;;19.98;;
71947;SDS011;63257;55.082;38.772;2023-07-29T01:46:09;44.10;;;19.57;;
71947;SDS011;63257;55.082;38.772;2023-07-29T01:48:37;40.15;;;17.27;;
71947;SDS011;63257;55.082;38.772;2023-07-29T01:51:04;39.40;;;17.52;;
71947;SDS011;63257;55.082;38.772;2023-07-29T01:53:30;30.77;;;13.60;;
71947;SDS011;63257;55.082;38.772;2023-07-29T01:55:56;30.07;;;14.33;;
71947;SDS011;63257;55.082;38.772;2023-07-29T01:58:22;32.55;;;15.63;;
71947;SDS011;63257;55.082;38.772;2023-07-29T02:00:49;32.13;;;15.38;;
71947;SDS011;63257;55.082;38.772;2023-07-29T02:03:15;29.98;;;14.52;;
71947;SDS011;63257;55.082;38.772;2023-07-29T02:05:41;33.83;;;15.47;;
71947;SDS011;63257;55.082;38.772;2023-07-29T02:08:09;25.88;;;12.63;;
71947;SDS011;63257;55.082;38.772;2023-07-29T02:10:36;26.27;;;12.13;;
71947;SDS011;63257;55.082;38.772;2023-07-29T02:13:03;24.17;;;11.68;;
71947;SDS011;63257;55.082;38.772;2023-07-29T02:15:31;22.07;;;10.60;;
71947;SDS011;63257;55.082;38.772;2023-07-29T02:17:57;15.73;;;8.90;;
71947;SDS011;63257;55.082;38.772;2023-07-29T02:20:25;24.27;;;10.95;;
71947;SDS011;63257;55.082;38.772;2023-07-29T02:22:51;23.27;;;10.57;;
71947;SDS011;63257;55.082;38.772;2023-07-29T02:25:17;22.23;;;11.20;;
71947;SDS011;63257;55.082;38.772;2023-07-29T02:27:45;22.97;;;8.73;;
71947;SDS011;63257;55.082;38.772;2023-07-29T02:30:11;17.95;;;8.57;;
71947;SDS011;63257;55.082;38.772;2023-07-29T02:32:38;18.55;;;9.35;;
71947;SDS011;63257;55.082;38.772;2023-07-29T02:35:05;19.48;;;9.65;;
71947;SDS011;63257;55.082;38.772;2023-07-29T02:37:31;19.45;;;8.98;;
71947;SDS011;63257;55.082;38.772;2023-07-29T02:39:57;19.70;;;9.57;;
71947;SDS011;63257;55.082;38.772;2023-07-29T02:42:23;16.90;;;8.40;;
71947;SDS011;63257;55.082;38.772;2023-07-29T02:44:48;18.00;;;8.77;;
71947;SDS011;63257;55.082;38.772;2023-07-29T02:47:15;17.05;;;9.00;;
71947;SDS011;63257;55.082;38.772;2023-07-29T02:49:41;18.95;;;8.93;;
71947;SDS011;63257;55.082;38.772;2023-07-29T02:52:07;19.08;;;8.75;;
71947;SDS011;63257;55.082;38.772;2023-07-29T02:54:33;16.40;;;8.32;;
71947;SDS011;63257;55.082;38.772;2023-07-29T02:56:59;15.33;;;8.30;;
71947;SDS011;63257;55.082;38.772;2023-07-29T02:59:26;17.55;;;8.10;;
71947;SDS011;63257;55.082;38.772;2023-07-29T03:01:52;13.48;;;6.45;;
71947;SDS011;63257;55.082;38.772;2023-07-29T03:04:19;15.82;;;7.20;;
71947;SDS011;63257;55.082;38.772;2023-07-29T03:06:45;20.20;;;8.43;;
71947;SDS011;63257;55.082;38.772;2023-07-29T03:09:13;16.50;;;7.90;;
71947;SDS011;63257;55.082;38.772;2023-07-29T03:11:39;16.60;;;8.23;;
71947;SDS011;63257;55.082;38.772;2023-07-29T03:14:05;16.70;;;8.30;;
71947;SDS011;63257;55.082;38.772;2023-07-29T03:16:31;16.13;;;7.88;;
71947;SDS011;63257;55.082;38.772;2023-07-29T03:18:59;15.80;;;8.63;;
71947;SDS011;63257;55.082;38.772;2023-07-29T03:21:25;19.65;;;8.73;;
71947;SDS011;63257;55.082;38.772;2023-07-29T03:23:51;19.40;;;8.80;;
71947;SDS011;63257;55.082;38.772;2023-07-29T03:26:17;16.43;;;8.20;;
71947;SDS011;63257;55.082;38.772;2023-07-29T03:28:43;13.38;;;6.70;;
71947;SDS011;63257;55.082;38.772;2023-07-29T03:31:10;14.55;;;7.70;;
71947;SDS011;63257;55.082;38.772;2023-07-29T03:33:36;13.25;;;5.90;;
71947;SDS011;63257;55.082;38.772;2023-07-29T03:36:02;12.67;;;5.87;;
71947;SDS011;63257;55.082;38.772;2023-07-29T03:38:28;12.73;;;6.70;;
71947;SDS011;63257;55.082;38.772;2023-07-29T03:40:54;10.07;;;5.47;;
71947;SDS011;63257;55.082;38.772;2023-07-29T03:43:20;6.73;;;3.67;;
71947;SDS011;63257;55.082;38.772;2023-07-29T03:45:46;8.02;;;4.50;;
71947;SDS011;63257;55.082;38.772;2023-07-29T03:48:12;8.57;;;4.30;;
71947;SDS011;63257;55.082;38.772;2023-07-29T03:50:38;8.85;;;4.65;;
71947;SDS011;63257;55.082;38.772;2023-07-29T03:53:05;9.40;;;4.97;;
71947;SDS011;63257;55.082;38.772;2023-07-29T03:55:31;10.15;;;4.68;;
71947;SDS011;63257;55.082;38.772;2023-07-29T03:57:58;9.52;;;4.65;;
71947;SDS011;63257;55.082;38.772;2023-07-29T04:00:25;9.70;;;4.22;;
71947;SDS011;63257;55.082;38.772;2023-07-29T04:02:51;8.80;;;5.03;;
71947;SDS011;63257;55.082;38.772;2023-07-29T04:05:17;10.97;;;6.67;;
71947;SDS011;63257;55.082;38.772;2023-07-29T04:07:44;11.23;;;5.50;;
71947;SDS011;63257;55.082;38.772;2023-07-29T04:10:10;12.10;;;6.53;;
71947;SDS011;63257;55.082;38.772;2023-07-29T04:12:37;14.80;;;7.90;;
71947;SDS011;63257;55.082;38.772;2023-07-29T04:15:04;13.48;;;6.82;;
71947;SDS011;63257;55.082;38.772;2023-07-29T04:17:32;15.97;;;7.43;;
71947;SDS011;63257;55.082;38.772;2023-07-29T04:19:58;25.77;;;11.93;;
71947;SDS011;63257;55.082;38.772;2023-07-29T04:22:30;30.45;;;13.65;;
71947;SDS011;63257;55.082;38.772;2023-07-29T04:24:56;31.88;;;14.15;;
71947;SDS011;63257;55.082;38.772;2023-07-29T04:27:23;33.88;;;16.42;;
71947;SDS011;63257;55.082;38.772;2023-07-29T04:29:49;36.03;;;16.70;;
71947;SDS011;63257;55.082;38.772;2023-07-29T04:32:15;40.05;;;18.00;;
71947;SDS011;63257;55.082;38.772;2023-07-29T04:34:42;41.17;;;19.20;;
71947;SDS011;63257;55.082;38.772;2023-07-29T04:37:08;46.97;;;20.05;;
71947;SDS011;63257;55.082;38.772;2023-07-29T04:39:35;42.87;;;19.90;;
71947;SDS011;63257;55.082;38.772;2023-07-29T04:42:01;44.25;;;18.67;;
71947;SDS011;63257;55.082;38.772;2023-07-29T04:44:27;38.13;;;18.13;;
71947;SDS011;63257;55.082;38.772;2023-07-29T04:46:54;38.08;;;16.27;;
71947;SDS011;63257;55.082;38.772;2023-07-29T04:49:20;33.17;;;14.52;;
71947;SDS011;63257;55.082;38.772;2023-07-29T04:51:47;33.60;;;14.13;;
71947;SDS011;63257;55.082;38.772;2023-07-29T04:54:13;30.52;;;14.00;;
71947;SDS011;63257;55.082;38.772;2023-07-29T04:56:39;31.65;;;13.52;;
71947;SDS011;63257;55.082;38.772;2023-07-29T04:59:05;31.63;;;13.60;;
71947;SDS011;63257;55.082;38.772;2023-07-29T05:01:34;27.40;;;12.57;;
71947;SDS011;63257;55.082;38.772;2023-07-29T05:04:00;23.08;;;10.38;;
71947;SDS011;63257;55.082;38.772;2023-07-29T05:06:27;21.73;;;9.77;;
71947;SDS011;63257;55.082;38.772;2023-07-29T05:08:53;17.43;;;8.50;;
71947;SDS011;63257;55.082;38.772;2023-07-29T05:11:19;23.38;;;10.75;;
71947;SDS011;63257;55.082;38.772;2023-07-29T05:13:44;24.77;;;11.13;;
71947;SDS011;63257;55.082;38.772;2023-07-29T05:16:11;23.17;;;10.65;;
71947;SDS011;63257;55.082;38.772;2023-07-29T05:18:37;22.58;;;11.23;;
71947;SDS011;63257;55.082;38.772;2023-07-29T05:21:04;21.83;;;10.43;;
71947;SDS011;63257;55.082;38.772;2023-07-29T05:23:30;22.93;;;10.20;;
71947;SDS011;63257;55.082;38.772;2023-07-29T05:25:56;22.42;;;10.98;;
71947;SDS011;63257;55.082;38.772;2023-07-29T05:28:22;19.13;;;9.48;;
71947;SDS011;63257;55.082;38.772;2023-07-29T05:30:48;20.48;;;10.23;;
71947;SDS011;63257;55.082;38.772;2023-07-29T05:33:15;23.03;;;10.93;;
71947;SDS011;63257;55.082;38.772;2023-07-29T05:35:41;21.33;;;10.50;;
71947;SDS011;63257;55.082;38.772;2023-07-29T05:38:07;22.20;;;10.75;;
71947;SDS011;63257;55.082;38.772;2023-07-29T05:40:34;20.98;;;10.75;;
71947;SDS011;63257;55.082;38.772;2023-07-29T05:43:01;20.42;;;9.40;;
71947;SDS011;63257;55.082;38.772;2023-07-29T05:45:28;16.23;;;8.03;;
71947;SDS011;63257;55.082;38.772;2023-07-29T05:47:56;18.75;;;9.43;;
71947;SDS011;63257;55.082;38.772;2023-07-29T05:50:22;20.08;;;9.90;;
71947;SDS011;63257;55.082;38.772;2023-07-29T05:52:48;20.77;;;8.93;;
71947;SDS011;63257;55.082;38.772;2023-07-29T05:55:14;21.58;;;10.82;;
71947;SDS011;63257;55.082;38.772;2023-07-29T05:57:39;21.53;;;10.40;;
71947;SDS011;63257;55.082;38.772;2023-07-29T06:00:07;26.23;;;12.85;;
71947;SDS011;63257;55.082;38.772;2023-07-29T06:02:39;25.30;;;12.70;;
71947;SDS011;63257;55.082;38.772;2023-07-29T06:05:08;23.67;;;11.55;;
71947;SDS011;63257;55.082;38.772;2023-07-29T06:07:34;23.63;;;11.23;;
71947;SDS011;63257;55.082;38.772;2023-07-29T06:10:00;21.73;;;9.88;;
71947;SDS011;63257;55.082;38.772;2023-07-29T06:12:26;20.90;;;10.43;;
71947;SDS011;63257;55.082;38.772;2023-07-29T06:14:52;19.23;;;8.75;;
71947;SDS011;63257;55.082;38.772;2023-07-29T06:17:17;20.00;;;9.63;;
71947;SDS011;63257;55.082;38.772;2023-07-29T06:19:43;18.43;;;8.97;;
71947;SDS011;63257;55.082;38.772;2023-07-29T06:22:09;17.05;;;8.55;;
71947;SDS011;63257;55.082;38.772;2023-07-29T06:24:35;17.20;;;7.57;;
71947;SDS011;63257;55.082;38.772;2023-07-29T06:27:01;16.55;;;7.20;;
71947;SDS011;63257;55.082;38.772;2023-07-29T06:29:27;15.70;;;7.15;;
71947;SDS011;63257;55.082;38.772;2023-07-29T06:31:53;13.33;;;6.90;;
71947;SDS011;63257;55.082;38.772;2023-07-29T06:34:19;11.20;;;5.55;;
71947;SDS011;63257;55.082;38.772;2023-07-29T06:36:45;12.55;;;5.68;;
71947;SDS011;63257;55.082;38.772;2023-07-29T06:39:11;12.50;;;5.77;;
71947;SDS011;63257;55.082;38.772;2023-07-29T06:41:37;11.48;;;4.90;;
71947;SDS011;63257;55.082;38.772;2023-07-29T06:44:03;11.73;;;5.10;;
71947;SDS011;63257;55.082;38.772;2023-07-29T06:46:29;10.47;;;4.57;;
71947;SDS011;63257;55.082;38.772;2023-07-29T06:48:55;9.48;;;4.38;;
71947;SDS011;63257;55.082;38.772;2023-07-29T06:51:21;11.23;;;5.35;;
71947;SDS011;63257;55.082;38.772;2023-07-29T06:53:47;10.63;;;5.00;;
71947;SDS011;63257;55.082;38.772;2023-07-29T06:56:14;9.10;;;4.50;;
71947;SDS011;63257;55.082;38.772;2023-07-29T06:58:40;9.43;;;4.50;;
71947;SDS011;63257;55.082;38.772;2023-07-29T07:01:06;10.27;;;5.13;;
71947;SDS011;63257;55.082;38.772;2023-07-29T07:03:32;10.83;;;4.83;;
71947;SDS011;63257;55.082;38.772;2023-07-29T07:05:58;8.75;;;4.65;;
71947;SDS011;63257;55.082;38.772;2023-07-29T07:08:24;10.18;;;4.72;;
71947;SDS011;63257;55.082;38.772;2023-07-29T07:10:49;11.07;;;4.80;;
71947;SDS011;63257;55.082;38.772;2023-07-29T07:13:15;9.90;;;4.93;;
71947;SDS011;63257;55.082;38.772;2023-07-29T07:15:41;11.07;;;5.63;;
71947;SDS011;63257;55.082;38.772;2023-07-29T07:18:07;9.02;;;4.68;;
71947;SDS011;63257;55.082;38.772;2023-07-29T07:20:33;10.00;;;5.30;;
71947;SDS011;63257;55.082;38.772;2023-07-29T07:23:00;10.85;;;5.00;;
71947;SDS011;63257;55.082;38.772;2023-07-29T07:25:25;10.17;;;5.23;;
71947;SDS011;63257;55.082;38.772;2023-07-29T07:27:51;10.98;;;4.53;;
71947;SDS011;63257;55.082;38.772;2023-07-29T07:30:17;9.00;;;5.13;;
71947;SDS011;63257;55.082;38.772;2023-07-29T07:32:43;9.52;;;5.03;;
71947;SDS011;63257;55.082;38.772;2023-07-29T07:35:08;8.82;;;4.55;;
71947;SDS011;63257;55.082;38.772;2023-07-29T07:37:34;10.73;;;4.72;;
71947;SDS011;63257;55.082;38.772;2023-07-29T07:40:00;9.80;;;4.30;;
71947;SDS011;63257;55.082;38.772;2023-07-29T07:42:25;8.10;;;4.25;;
71947;SDS011;63257;55.082;38.772;2023-07-29T07:44:51;10.20;;;5.10;;
71947;SDS011;63257;55.082;38.772;2023-07-29T07:47:17;10.77;;;5.93;;
71947;SDS011;63257;55.082;38.772;2023-07-29T07:49:43;11.20;;;5.73;;
71947;SDS011;63257;55.082;38.772;2023-07-29T07:52:09;14.75;;;7.03;;
71947;SDS011;63257;55.082;38.772;2023-07-29T07:54:34;14.63;;;6.57;;
71947;SDS011;63257;55.082;38.772;2023-07-29T07:57:00;13.67;;;6.10;;
71947;SDS011;63257;55.082;38.772;2023-07-29T07:59:26;15.98;;;7.45;;
71947;SDS011;63257;55.082;38.772;2023-07-29T08:01:51;13.20;;;6.70;;
71947;SDS011;63257;55.082;38.772;2023-07-29T08:04:20;14.20;;;7.20;;
71947;SDS011;63257;55.082;38.772;2023-07-29T08:06:46;17.53;;;8.60;;
71947;SDS011;63257;55.082;38.772;2023-07-29T08:09:12;18.75;;;7.68;;
71947;SDS011;63257;55.082;38.772;2023-07-29T08:11:37;19.33;;;9.20;;
71947;SDS011;63257;55.082;38.772;2023-07-29T08:14:03;17.52;;;8.18;;
71947;SDS011;63257;55.082;38.772;2023-07-29T08:16:29;20.93;;;9.17;;
71947;SDS011;63257;55.082;38.772;2023-07-29T08:18:55;13.02;;;6.65;;
71947;SDS011;63257;55.082;38.772;2023-07-29T08:21:20;13.02;;;6.75;;
71947;SDS011;63257;55.082;38.772;2023-07-29T08:23:46;13.17;;;6.43;;
71947;SDS011;63257;55.082;38.772;2023-07-29T08:26:12;15.02;;;6.90;;
71947;SDS011;63257;55.082;38.772;2023-07-29T08:28:38;11.60;;;6.33;;
71947;SDS011;63257;55.082;38.772;2023-07-29T08:31:05;13.15;;;6.80;;
71947;SDS011;63257;55.082;38.772;2023-07-29T08:33:31;11.10;;;5.20;;
71947;SDS011;63257;55.082;38.772;2023-07-29T08:36:01;12.60;;;7.17;;
71947;SDS011;63257;55.082;38.772;2023-07-29T08:38:28;11.48;;;5.43;;
71947;SDS011;63257;55.082;38.772;2023-07-29T08:40:57;11.40;;;5.72;;
71947;SDS011;63257;55.082;38.772;2023-07-29T08:43:31;10.82;;;6.05;;
71947;SDS011;63257;55.082;38.772;2023-07-29T08:45:58;9.50;;;5.80;;
71947;SDS011;63257;55.082;38.772;2023-07-29T08:48:41;11.50;;;5.80;;
71947;SDS011;63257;55.082;38.772;2023-07-29T08:51:09;9.52;;;5.28;;
71947;SDS011;63257;55.082;38.772;2023-07-29T08:53:36;11.55;;;6.07;;
71947;SDS011;63257;55.082;38.772;2023-07-29T08:56:02;11.02;;;5.80;;
71947;SDS011;63257;55.082;38.772;2023-07-29T08:58:29;11.20;;;5.77;;
71947;SDS011;63257;55.082;38.772;2023-07-29T09:00:55;13.18;;;6.00;;
71947;SDS011;63257;55.082;38.772;2023-07-29T09:03:20;11.25;;;5.97;;
71947;SDS011;63257;55.082;38.772;2023-07-29T09:05:47;13.37;;;6.63;;
71947;SDS011;63257;55.082;38.772;2023-07-29T09:08:13;10.00;;;5.60;;
71947;SDS011;63257;55.082;38.772;2023-07-29T09:10:40;10.27;;;5.55;;
71947;SDS011;63257;55.082;38.772;2023-07-29T09:13:06;10.38;;;6.50;;
71947;SDS011;63257;55.082;38.772;2023-07-29T09:15:34;10.07;;;5.47;;
71947;SDS011;63257;55.082;38.772;2023-07-29T09:20:58;13.68;;;5.55;;
71947;SDS011;63257;55.082;38.772;2023-07-29T09:23:25;37.45;;;18.23;;
71947;SDS011;63257;55.082;38.772;2023-07-29T09:26:01;12.02;;;5.60;;
71947;SDS011;63257;55.082;38.772;2023-07-29T09:28:27;9.37;;;4.63;;
71947;SDS011;63257;55.082;38.772;2023-07-29T09:30:59;11.05;;;6.47;;
71947;SDS011;63257;55.082;38.772;2023-07-29T09:33:25;11.32;;;5.22;;
71947;SDS011;63257;55.082;38.772;2023-07-29T09:35:57;10.23;;;5.50;;
71947;SDS011;63257;55.082;38.772;2023-07-29T09:38:29;11.87;;;5.57;;
71947;SDS011;63257;55.082;38.772;2023-07-29T09:40:56;11.43;;;4.65;;
71947;SDS011;63257;55.082;38.772;2023-07-29T09:43:26;10.25;;;5.70;;
71947;SDS011;63257;55.082;38.772;2023-07-29T09:45:55;10.30;;;5.30;;
71947;SDS011;63257;55.082;38.772;2023-07-29T09:48:26;10.57;;;5.72;;
71947;SDS011;63257;55.082;38.772;2023-07-29T09:50:54;11.33;;;6.20;;
71947;SDS011;63257;55.082;38.772;2023-07-29T09:53:21;8.80;;;5.20;;
71947;SDS011;63257;55.082;38.772;2023-07-29T09:55:47;9.07;;;5.22;;
71947;SDS011;63257;55.082;38.772;2023-07-29T09:58:22;11.25;;;4.90;;
71947;SDS011;63257;55.082;38.772;2023-07-29T10:00:52;7.83;;;4.50;;
71947;SDS011;63257;55.082;38.772;2023-07-29T10:03:21;6.82;;;3.53;;
71947;SDS011;63257;55.082;38.772;2023-07-29T10:05:47;7.88;;;4.00;;
71947;SDS011;63257;55.082;38.772;2023-07-29T10:08:13;7.20;;;4.15;;
71947;SDS011;63257;55.082;38.772;2023-07-29T10:10:43;6.47;;;3.95;;
71947;SDS011;63257;55.082;38.772;2023-07-29T10:13:09;7.38;;;4.00;;
71947;SDS011;63257;55.082;38.772;2023-07-29T10:15:35;7.65;;;3.63;;
71947;SDS011;63257;55.082;38.772;2023-07-29T10:18:02;7.50;;;4.07;;
71947;SDS011;63257;55.082;38.772;2023-07-29T10:20:31;84.30;;;45.67;;
71947;SDS011;63257;55.082;38.772;2023-07-29T10:23:01;6.70;;;3.77;;
71947;SDS011;63257;55.082;38.772;2023-07-29T10:25:38;5.78;;;3.30;;
71947;SDS011;63257;55.082;38.772;2023-07-29T10:28:08;5.43;;;2.92;;
71947;SDS011;63257;55.082;38.772;2023-07-29T10:30:37;5.32;;;3.03;;
71947;SDS011;63257;55.082;38.772;2023-07-29T10:33:04;6.88;;;3.45;;
71947;SDS011;63257;55.082;38.772;2023-07-29T10:35:34;5.77;;;3.03;;
71947;SDS011;63257;55.082;38.772;2023-07-29T10:38:02;5.53;;;3.17;;
71947;SDS011;63257;55.082;38.772;2023-07-29T10:43:31;6.45;;;3.28;;
71947;SDS011;63257;55.082;38.772;2023-07-29T10:46:22;6.93;;;4.13;;
71947;SDS011;63257;55.082;38.772;2023-07-29T10:48:55;7.47;;;4.17;;
71947;SDS011;63257;55.082;38.772;2023-07-29T10:51:22;7.68;;;4.05;;
71947;SDS011;63257;55.082;38.772;2023-07-29T10:53:56;7.65;;;3.85;;
71947;SDS011;63257;55.082;38.772;2023-07-29T10:56:32;7.07;;;3.63;;
71947;SDS011;63257;55.082;38.772;2023-07-29T10:59:02;7.28;;;3.97;;
71947;SDS011;63257;55.082;38.772;2023-07-29T11:01:57;6.87;;;3.53;;
71947;SDS011;63257;55.082;38.772;2023-07-29T11:04:24;7.38;;;4.28;;
71947;SDS011;63257;55.082;38.772;2023-07-29T11:15:06;5.30;;;2.80;;
71947;SDS011;63257;55.082;38.772;2023-07-29T11:17:43;60.65;;;35.67;;
71947;SDS011;63257;55.082;38.772;2023-07-29T11:20:14;7.68;;;3.90;;
71947;SDS011;63257;55.082;38.772;2023-07-29T11:22:41;7.60;;;4.60;;
71947;SDS011;63257;55.082;38.772;2023-07-29T11:25:08;8.82;;;4.68;;
71947;SDS011;63257;55.082;38.772;2023-07-29T11:27:36;9.03;;;4.87;;
71947;SDS011;63257;55.082;38.772;2023-07-29T11:30:06;7.40;;;4.43;;
71947;SDS011;63257;55.082;38.772;2023-07-29T11:32:34;10.23;;;5.10;;
71947;SDS011;63257;55.082;38.772;2023-07-29T11:35:01;7.35;;;4.45;;
71947;SDS011;63257;55.082;38.772;2023-07-29T11:37:30;8.93;;;4.82;;
71947;SDS011;63257;55.082;38.772;2023-07-29T11:39:56;7.57;;;4.30;;
71947;SDS011;63257;55.082;38.772;2023-07-29T11:42:21;6.85;;;3.83;;
71947;SDS011;63257;55.082;38.772;2023-07-29T11:44:47;8.88;;;4.93;;
71947;SDS011;63257;55.082;38.772;2023-07-29T11:47:13;12.57;;;6.00;;
71947;SDS011;63257;55.082;38.772;2023-07-29T11:49:39;9.18;;;4.63;;
71947;SDS011;63257;55.082;38.772;2023-07-29T11:52:09;8.50;;;4.23;;
71947;SDS011;63257;55.082;38.772;2023-07-29T11:54:36;8.80;;;4.82;;
71947;SDS011;63257;55.082;38.772;2023-07-29T11:57:06;6.80;;;4.30;;
71947;SDS011;63257;55.082;38.772;2023-07-29T11:59:33;8.93;;;5.05;;
71947;SDS011;63257;55.082;38.772;2023-07-29T12:02:06;8.57;;;4.80;;
71947;SDS011;63257;55.082;38.772;2023-07-29T12:04:37;7.87;;;4.97;;
71947;SDS011;63257;55.082;38.772;2023-07-29T12:07:04;9.98;;;4.32;;
71947;SDS011;63257;55.082;38.772;2023-07-29T12:09:31;7.78;;;4.40;;
71947;SDS011;63257;55.082;38.772;2023-07-29T12:11:57;9.60;;;5.00;;
71947;SDS011;63257;55.082;38.772;2023-07-29T12:14:25;9.45;;;5.75;;
71947;SDS011;63257;55.082;38.772;2023-07-29T12:16:53;8.93;;;5.00;;
71947;SDS011;63257;55.082;38.772;2023-07-29T12:19:19;10.35;;;6.32;;
71947;SDS011;63257;55.082;38.772;2023-07-29T12:21:47;11.23;;;6.20;;
71947;SDS011;63257;55.082;38.772;2023-07-29T12:24:13;11.27;;;6.95;;
71947;SDS011;63257;55.082;38.772;2023-07-29T12:26:40;10.03;;;6.30;;
71947;SDS011;63257;55.082;38.772;2023-07-29T12:29:17;14.15;;;6.05;;
71947;SDS011;63257;55.082;38.772;2023-07-29T12:31:46;11.00;;;6.25;;
71947;SDS011;63257;55.082;38.772;2023-07-29T12:34:19;9.60;;;6.03;;
71947;SDS011;63257;55.082;38.772;2023-07-29T12:36:49;9.70;;;5.77;;
71947;SDS011;63257;55.082;38.772;2023-07-29T12:39:28;8.60;;;5.40;;
71947;SDS011;63257;55.082;38.772;2023-07-29T12:41:57;8.85;;;5.32;;
71947;SDS011;63257;55.082;38.772;2023-07-29T12:44:30;8.48;;;5.05;;
71947;SDS011;63257;55.082;38.772;2023-07-29T12:46:57;11.18;;;5.28;;
71947;SDS011;63257;55.082;38.772;2023-07-29T12:49:23;9.00;;;5.67;;
71947;SDS011;63257;55.082;38.772;2023-07-29T12:51:50;9.52;;;6.10;;
71947;SDS011;63257;55.082;38.772;2023-07-29T12:54:15;11.40;;;5.97;;
71947;SDS011;63257;55.082;38.772;2023-07-29T12:56:41;13.90;;;8.90;;
71947;SDS011;63257;55.082;38.772;2023-07-29T12:59:07;9.97;;;6.47;;
71947;SDS011;63257;55.082;38.772;2023-07-29T13:01:33;6.70;;;4.03;;
71947;SDS011;63257;55.082;38.772;2023-07-29T13:03:59;8.05;;;5.13;;
71947;SDS011;63257;55.082;38.772;2023-07-29T13:06:25;9.13;;;5.80;;
71947;SDS011;63257;55.082;38.772;2023-07-29T13:08:51;7.82;;;4.63;;
71947;SDS011;63257;55.082;38.772;2023-07-29T13:11:17;7.90;;;4.60;;
71947;SDS011;63257;55.082;38.772;2023-07-29T13:13:43;8.40;;;5.23;;
71947;SDS011;63257;55.082;38.772;2023-07-29T13:16:11;7.32;;;4.35;;
71947;SDS011;63257;55.082;38.772;2023-07-29T13:18:38;9.25;;;4.43;;
71947;SDS011;63257;55.082;38.772;2023-07-29T13:21:05;8.43;;;3.95;;
71947;SDS011;63257;55.082;38.772;2023-07-29T13:23:30;8.83;;;5.23;;
71947;SDS011;63257;55.082;38.772;2023-07-29T13:25:57;8.73;;;5.50;;
71947;SDS011;63257;55.082;38.772;2023-07-29T13:28:23;8.27;;;4.72;;
71947;SDS011;63257;55.082;38.772;2023-07-29T13:30:49;8.10;;;4.87;;
71947;SDS011;63257;55.082;38.772;2023-07-29T13:33:15;8.25;;;5.80;;
71947;SDS011;63257;55.082;38.772;2023-07-29T13:35:41;6.85;;;4.55;;
71947;SDS011;63257;55.082;38.772;2023-07-29T13:38:06;9.43;;;5.03;;
71947;SDS011;63257;55.082;38.772;2023-07-29T13:40:32;11.10;;;6.30;;
71947;SDS011;63257;55.082;38.772;2023-07-29T13:42:58;9.13;;;5.83;;
71947;SDS011;63257;55.082;38.772;2023-07-29T13:45:24;11.52;;;6.35;;
71947;SDS011;63257;55.082;38.772;2023-07-29T13:47:49;8.93;;;5.80;;
71947;SDS011;63257;55.082;38.772;2023-07-29T13:50:16;10.15;;;6.40;;
71947;SDS011;63257;55.082;38.772;2023-07-29T13:52:43;10.27;;;6.10;;
71947;SDS011;63257;55.082;38.772;2023-07-29T13:55:09;9.90;;;6.22;;
71947;SDS011;63257;55.082;38.772;2023-07-29T13:57:37;11.18;;;7.03;;
71947;SDS011;63257;55.082;38.772;2023-07-29T14:00:07;11.47;;;6.03;;
71947;SDS011;63257;55.082;38.772;2023-07-29T14:02:41;10.68;;;6.30;;
71947;SDS011;63257;55.082;38.772;2023-07-29T14:05:08;10.50;;;6.50;;
71947;SDS011;63257;55.082;38.772;2023-07-29T14:07:34;11.10;;;6.85;;
71947;SDS011;63257;55.082;38.772;2023-07-29T14:10:00;10.00;;;6.27;;
71947;SDS011;63257;55.082;38.772;2023-07-29T14:12:29;8.80;;;5.53;;
71947;SDS011;63257;55.082;38.772;2023-07-29T14:14:55;8.88;;;5.70;;
71947;SDS011;63257;55.082;38.772;2023-07-29T14:17:21;8.68;;;5.75;;
71947;SDS011;63257;55.082;38.772;2023-07-29T14:19:47;9.40;;;5.03;;
71947;SDS011;63257;55.082;38.772;2023-07-29T14:22:13;8.55;;;4.80;;
71947;SDS011;63257;55.082;38.772;2023-07-29T14:24:39;8.97;;;4.37;;
71947;SDS011;63257;55.082;38.772;2023-07-29T14:27:04;10.20;;;6.18;;
71947;SDS011;63257;55.082;38.772;2023-07-29T14:29:30;8.87;;;5.77;;
71947;SDS011;63257;55.082;38.772;2023-07-29T14:31:57;9.73;;;6.18;;
71947;SDS011;63257;55.082;38.772;2023-07-29T14:34:22;8.02;;;4.75;;
71947;SDS011;63257;55.082;38.772;2023-07-29T14:36:48;8.60;;;4.93;;
71947;SDS011;63257;55.082;38.772;2023-07-29T14:39:14;7.97;;;5.00;;
71947;SDS011;63257;55.082;38.772;2023-07-29T14:41:40;7.53;;;4.40;;
71947;SDS011;63257;55.082;38.772;2023-07-29T14:44:05;6.75;;;3.95;;